sensor_id;sensor_type;location;lat;lon;timestamp;temperature;humidity
12872;DHT22;6504;53.766;9.626;2022-08-03T00:02:18;21.30;99.90
12872;DHT22;6504;53.766;9.626;2022-08-03T00:04:46;21.20;99.90
12872;DHT22;6504;53.766;9.626;2022-08-03T00:07:18;21.30;99.90
12872;DHT22;6504;53.766;9.626;2022-08-03T00:09:46;21.20;99.90
12872;DHT22;6504;53.766;9.626;2022-08-03T00:12:20;21.30;99.90
12872;DHT22;6504;53.766;9.626;2022-08-03T00:14:48;21.20;99.90
12872;DHT22;6504;53.766;9.626;2022-08-03T00:17:16;21.20;99.90
12872;DHT22;6504;53.766;9.626;2022-08-03T00:19:45;21.20;99.90
12872;DHT22;6504;53.766;9.626;2022-08-03T00:22:13;21.20;99.90
12872;DHT22;6504;53.766;9.626;2022-08-03T00:24:44;21.10;99.90
12872;DHT22;6504;53.766;9.626;2022-08-03T00:27:12;21.10;99.90
12872;DHT22;6504;53.766;9.626;2022-08-03T00:29:45;21.10;99.90
12872;DHT22;6504;53.766;9.626;2022-08-03T00:32:29;21.00;99.90
12872;DHT22;6504;53.766;9.626;2022-08-03T00:34:59;21.00;99.90
12872;DHT22;6504;53.766;9.626;2022-08-03T00:37:35;21.00;99.90
12872;DHT22;6504;53.766;9.626;2022-08-03T00:40:11;21.00;99.90
12872;DHT22;6504;53.766;9.626;2022-08-03T00:42:47;20.90;99.90
12872;DHT22;6504;53.766;9.626;2022-08-03T00:45:16;20.90;99.90
12872;DHT22;6504;53.766;9.626;2022-08-03T00:47:45;20.80;99.90
12872;DHT22;6504;53.766;9.626;2022-08-03T00:50:14;20.80;99.90
12872;DHT22;6504;53.766;9.626;2022-08-03T00:52:42;20.80;99.90
12872;DHT22;6504;53.766;9.626;2022-08-03T00:55:15;20.80;99.90
12872;DHT22;6504;53.766;9.626;2022-08-03T00:57:43;20.70;99.90
12872;DHT22;6504;53.766;9.626;2022-08-03T01:00:17;20.70;99.90
12872;DHT22;6504;53.766;9.626;2022-08-03T01:02:49;20.70;99.90
12872;DHT22;6504;53.766;9.626;2022-08-03T01:05:17;20.70;99.90
12872;DHT22;6504;53.766;9.626;2022-08-03T01:07:56;20.60;99.90
12872;DHT22;6504;53.766;9.626;2022-08-03T01:10:38;20.70;99.90
12872;DHT22;6504;53.766;9.626;2022-08-03T01:13:22;20.60;99.90
12872;DHT22;6504;53.766;9.626;2022-08-03T01:16:18;20.60;99.90
12872;DHT22;6504;53.766;9.626;2022-08-03T01:19:19;20.60;99.90
12872;DHT22;6504;53.766;9.626;2022-08-03T01:22:09;20.60;99.90
12872;DHT22;6504;53.766;9.626;2022-08-03T01:24:56;20.60;99.90
12872;DHT22;6504;53.766;9.626;2022-08-03T01:27:42;20.60;99.90
12872;DHT22;6504;53.766;9.626;2022-08-03T01:30:17;20.60;99.90
12872;DHT22;6504;53.766;9.626;2022-08-03T01:32:49;20.50;99.90
12872;DHT22;6504;53.766;9.626;2022-08-03T01:35:31;20.60;99.90
12872;DHT22;6504;53.766;9.626;2022-08-03T01:38:10;20.50;99.90
12872;DHT22;6504;53.766;9.626;2022-08-03T01:40:40;20.50;99.90
12872;DHT22;6504;53.766;9.626;2022-08-03T01:43:16;20.50;99.90
12872;DHT22;6504;53.766;9.626;2022-08-03T01:46:07;20.50;99.90
12872;DHT22;6504;53.766;9.626;2022-08-03T01:48:41;20.40;99.90
12872;DHT22;6504;53.766;9.626;2022-08-03T01:51:14;20.40;99.90
12872;DHT22;6504;53.766;9.626;2022-08-03T01:53:45;20.30;99.90
12872;DHT22;6504;53.766;9.626;2022-08-03T01:56:16;20.30;99.90
12872;DHT22;6504;53.766;9.626;2022-08-03T01:58:45;20.30;99.90
12872;DHT22;6504;53.766;9.626;2022-08-03T02:01:20;20.30;99.90
12872;DHT22;6504;53.766;9.626;2022-08-03T02:03:49;20.20;99.90
12872;DHT22;6504;53.766;9.626;2022-08-03T02:06:29;20.20;99.90
12872;DHT22;6504;53.766;9.626;2022-08-03T02:09:20;20.10;99.90
12872;DHT22;6504;53.766;9.626;2022-08-03T02:11:50;20.00;99.90
12872;DHT22;6504;53.766;9.626;2022-08-03T02:14:19;20.00;99.90
12872;DHT22;6504;53.766;9.626;2022-08-03T02:16:53;20.00;99.90
12872;DHT22;6504;53.766;9.626;2022-08-03T02:19:24;19.90;99.90
12872;DHT22;6504;53.766;9.626;2022-08-03T02:21:59;19.90;99.90
12872;DHT22;6504;53.766;9.626;2022-08-03T02:24:28;19.80;99.90
12872;DHT22;6504;53.766;9.626;2022-08-03T02:26:56;19.80;99.90
12872;DHT22;6504;53.766;9.626;2022-08-03T02:29:31;19.80;99.90
12872;DHT22;6504;53.766;9.626;2022-08-03T02:32:09;19.70;99.90
12872;DHT22;6504;53.766;9.626;2022-08-03T02:34:40;19.70;99.90
12872;DHT22;6504;53.766;9.626;2022-08-03T02:37:09;19.70;99.90
12872;DHT22;6504;53.766;9.626;2022-08-03T02:39:42;19.70;99.90
12872;DHT22;6504;53.766;9.626;2022-08-03T02:42:13;19.60;99.90
12872;DHT22;6504;53.766;9.626;2022-08-03T02:44:47;19.60;99.90
12872;DHT22;6504;53.766;9.626;2022-08-03T02:47:19;19.60;99.90
12872;DHT22;6504;53.766;9.626;2022-08-03T02:49:48;19.50;99.90
12872;DHT22;6504;53.766;9.626;2022-08-03T02:52:20;19.50;99.90
12872;DHT22;6504;53.766;9.626;2022-08-03T02:54:52;19.60;99.90
12872;DHT22;6504;53.766;9.626;2022-08-03T02:57:22;19.60;99.90
12872;DHT22;6504;53.766;9.626;2022-08-03T02:59:56;19.60;99.90
12872;DHT22;6504;53.766;9.626;2022-08-03T03:02:27;19.60;99.90
12872;DHT22;6504;53.766;9.626;2022-08-03T03:04:56;19.60;99.90
12872;DHT22;6504;53.766;9.626;2022-08-03T03:07:45;19.60;99.90
12872;DHT22;6504;53.766;9.626;2022-08-03T03:10:20;19.60;99.90
12872;DHT22;6504;53.766;9.626;2022-08-03T03:12:54;19.60;99.90
12872;DHT22;6504;53.766;9.626;2022-08-03T03:15:25;19.60;99.90
12872;DHT22;6504;53.766;9.626;2022-08-03T03:17:55;19.50;99.90
12872;DHT22;6504;53.766;9.626;2022-08-03T03:20:24;19.60;99.90
12872;DHT22;6504;53.766;9.626;2022-08-03T03:22:58;19.60;99.90
12872;DHT22;6504;53.766;9.626;2022-08-03T03:25:28;19.60;99.90
12872;DHT22;6504;53.766;9.626;2022-08-03T03:27:57;19.60;99.90
12872;DHT22;6504;53.766;9.626;2022-08-03T03:30:26;19.60;99.90
12872;DHT22;6504;53.766;9.626;2022-08-03T03:32:58;19.60;99.90
12872;DHT22;6504;53.766;9.626;2022-08-03T03:35:29;19.60;99.90
12872;DHT22;6504;53.766;9.626;2022-08-03T03:38:07;19.60;99.90
12872;DHT22;6504;53.766;9.626;2022-08-03T03:40:36;19.60;99.90
12872;DHT22;6504;53.766;9.626;2022-08-03T03:43:12;19.60;99.90
12872;DHT22;6504;53.766;9.626;2022-08-03T03:45:40;19.70;99.90
12872;DHT22;6504;53.766;9.626;2022-08-03T03:48:10;19.70;99.90
12872;DHT22;6504;53.766;9.626;2022-08-03T03:50:38;19.70;99.90
12872;DHT22;6504;53.766;9.626;2022-08-03T03:53:10;19.60;99.90
12872;DHT22;6504;53.766;9.626;2022-08-03T03:55:39;19.60;99.90
12872;DHT22;6504;53.766;9.626;2022-08-03T03:58:29;19.50;99.90
12872;DHT22;6504;53.766;9.626;2022-08-03T04:00:58;19.50;99.90
12872;DHT22;6504;53.766;9.626;2022-08-03T04:03:28;19.50;99.90
12872;DHT22;6504;53.766;9.626;2022-08-03T04:05:56;19.40;99.90
12872;DHT22;6504;53.766;9.626;2022-08-03T04:08:42;19.40;99.90
12872;DHT22;6504;53.766;9.626;2022-08-03T04:11:33;19.40;99.90
12872;DHT22;6504;53.766;9.626;2022-08-03T04:14:07;19.40;99.90
12872;DHT22;6504;53.766;9.626;2022-08-03T04:16:37;19.40;99.90
12872;DHT22;6504;53.766;9.626;2022-08-03T04:19:17;19.40;99.90
12872;DHT22;6504;53.766;9.626;2022-08-03T04:21:52;19.40;99.90
12872;DHT22;6504;53.766;9.626;2022-08-03T04:24:25;19.40;99.90
12872;DHT22;6504;53.766;9.626;2022-08-03T04:26:55;19.40;99.90
12872;DHT22;6504;53.766;9.626;2022-08-03T04:29:25;19.30;99.90
12872;DHT22;6504;53.766;9.626;2022-08-03T04:31:59;19.30;99.90
12872;DHT22;6504;53.766;9.626;2022-08-03T04:34:32;19.40;99.90
12872;DHT22;6504;53.766;9.626;2022-08-03T04:37:02;19.40;99.90
12872;DHT22;6504;53.766;9.626;2022-08-03T04:39:34;19.40;99.90
12872;DHT22;6504;53.766;9.626;2022-08-03T04:42:06;19.40;99.90
12872;DHT22;6504;53.766;9.626;2022-08-03T04:44:43;19.40;99.90
12872;DHT22;6504;53.766;9.626;2022-08-03T04:47:12;19.40;99.90
12872;DHT22;6504;53.766;9.626;2022-08-03T04:49:42;19.40;99.90
12872;DHT22;6504;53.766;9.626;2022-08-03T04:52:10;19.40;99.90
12872;DHT22;6504;53.766;9.626;2022-08-03T04:54:43;19.40;99.90
12872;DHT22;6504;53.766;9.626;2022-08-03T04:57:16;19.40;99.90
12872;DHT22;6504;53.766;9.626;2022-08-03T04:59:49;19.50;99.90
12872;DHT22;6504;53.766;9.626;2022-08-03T05:02:28;19.50;99.90
12872;DHT22;6504;53.766;9.626;2022-08-03T05:04:59;19.50;99.90
12872;DHT22;6504;53.766;9.626;2022-08-03T05:07:27;19.50;99.90
12872;DHT22;6504;53.766;9.626;2022-08-03T05:10:04;19.50;99.90
12872;DHT22;6504;53.766;9.626;2022-08-03T05:12:43;19.50;99.90
12872;DHT22;6504;53.766;9.626;2022-08-03T05:15:12;19.50;99.90
12872;DHT22;6504;53.766;9.626;2022-08-03T05:17:41;19.50;99.90
12872;DHT22;6504;53.766;9.626;2022-08-03T05:20:11;19.50;99.90
12872;DHT22;6504;53.766;9.626;2022-08-03T05:22:42;19.50;99.90
12872;DHT22;6504;53.766;9.626;2022-08-03T05:25:13;19.60;99.90
12872;DHT22;6504;53.766;9.626;2022-08-03T05:27:45;19.60;99.90
12872;DHT22;6504;53.766;9.626;2022-08-03T05:30:14;19.60;99.90
12872;DHT22;6504;53.766;9.626;2022-08-03T05:33:00;19.70;99.90
12872;DHT22;6504;53.766;9.626;2022-08-03T05:35:29;19.70;99.90
12872;DHT22;6504;53.766;9.626;2022-08-03T05:38:18;19.80;99.90
12872;DHT22;6504;53.766;9.626;2022-08-03T05:40:55;19.90;99.90
12872;DHT22;6504;53.766;9.626;2022-08-03T05:43:43;20.00;99.90
12872;DHT22;6504;53.766;9.626;2022-08-03T05:46:12;20.10;99.90
12872;DHT22;6504;53.766;9.626;2022-08-03T05:48:41;20.20;99.90
12872;DHT22;6504;53.766;9.626;2022-08-03T05:51:11;20.30;99.90
12872;DHT22;6504;53.766;9.626;2022-08-03T05:53:42;20.40;99.90
12872;DHT22;6504;53.766;9.626;2022-08-03T05:56:10;20.50;99.90
12872;DHT22;6504;53.766;9.626;2022-08-03T05:58:43;20.60;99.90
12872;DHT22;6504;53.766;9.626;2022-08-03T06:01:11;20.70;99.90
12872;DHT22;6504;53.766;9.626;2022-08-03T06:03:42;20.80;99.90
12872;DHT22;6504;53.766;9.626;2022-08-03T06:06:13;20.80;99.90
12872;DHT22;6504;53.766;9.626;2022-08-03T06:08:45;20.90;99.90
12872;DHT22;6504;53.766;9.626;2022-08-03T06:11:14;21.00;99.90
12872;DHT22;6504;53.766;9.626;2022-08-03T06:13:45;21.20;99.90
12872;DHT22;6504;53.766;9.626;2022-08-03T06:16:13;21.20;99.90
12872;DHT22;6504;53.766;9.626;2022-08-03T06:18:41;21.40;99.90
12872;DHT22;6504;53.766;9.626;2022-08-03T06:21:10;21.40;99.90
12872;DHT22;6504;53.766;9.626;2022-08-03T06:23:45;21.60;99.90
12872;DHT22;6504;53.766;9.626;2022-08-03T06:26:19;21.70;99.90
12872;DHT22;6504;53.766;9.626;2022-08-03T06:28:47;21.80;99.90
12872;DHT22;6504;53.766;9.626;2022-08-03T06:31:18;21.90;99.90
12872;DHT22;6504;53.766;9.626;2022-08-03T06:33:48;22.00;99.90
12872;DHT22;6504;53.766;9.626;2022-08-03T06:36:36;22.00;99.90
12872;DHT22;6504;53.766;9.626;2022-08-03T06:39:06;22.10;99.90
12872;DHT22;6504;53.766;9.626;2022-08-03T06:41:41;22.20;99.90
12872;DHT22;6504;53.766;9.626;2022-08-03T06:44:14;22.30;99.90
12872;DHT22;6504;53.766;9.626;2022-08-03T06:46:42;22.50;99.90
12872;DHT22;6504;53.766;9.626;2022-08-03T06:49:10;22.60;99.90
12872;DHT22;6504;53.766;9.626;2022-08-03T06:51:42;22.70;99.90
12872;DHT22;6504;53.766;9.626;2022-08-03T06:54:33;22.80;99.90
12872;DHT22;6504;53.766;9.626;2022-08-03T06:57:05;22.90;99.90
12872;DHT22;6504;53.766;9.626;2022-08-03T06:59:34;23.00;99.90
12872;DHT22;6504;53.766;9.626;2022-08-03T07:02:22;23.10;99.90
12872;DHT22;6504;53.766;9.626;2022-08-03T07:04:54;23.20;99.90
12872;DHT22;6504;53.766;9.626;2022-08-03T07:07:24;23.30;99.90
12872;DHT22;6504;53.766;9.626;2022-08-03T07:09:56;23.40;99.90
12872;DHT22;6504;53.766;9.626;2022-08-03T07:12:25;23.50;99.90
12872;DHT22;6504;53.766;9.626;2022-08-03T07:14:54;23.60;99.90
12872;DHT22;6504;53.766;9.626;2022-08-03T07:17:29;23.70;99.90
12872;DHT22;6504;53.766;9.626;2022-08-03T07:19:57;23.80;99.90
12872;DHT22;6504;53.766;9.626;2022-08-03T07:22:26;24.00;99.90
12872;DHT22;6504;53.766;9.626;2022-08-03T07:24:56;24.10;99.90
12872;DHT22;6504;53.766;9.626;2022-08-03T07:27:25;24.10;99.90
12872;DHT22;6504;53.766;9.626;2022-08-03T07:29:57;24.20;99.90
12872;DHT22;6504;53.766;9.626;2022-08-03T07:32:26;24.20;99.90
12872;DHT22;6504;53.766;9.626;2022-08-03T07:34:54;24.30;99.90
12872;DHT22;6504;53.766;9.626;2022-08-03T07:37:27;24.40;99.90
12872;DHT22;6504;53.766;9.626;2022-08-03T07:39:57;24.50;99.90
12872;DHT22;6504;53.766;9.626;2022-08-03T07:42:26;24.60;99.90
12872;DHT22;6504;53.766;9.626;2022-08-03T07:44:54;24.70;99.90
12872;DHT22;6504;53.766;9.626;2022-08-03T07:47:24;24.80;99.90
12872;DHT22;6504;53.766;9.626;2022-08-03T07:50:06;24.90;99.90
12872;DHT22;6504;53.766;9.626;2022-08-03T07:52:34;25.00;99.90
12872;DHT22;6504;53.766;9.626;2022-08-03T07:55:17;25.10;99.90
12872;DHT22;6504;53.766;9.626;2022-08-03T07:57:46;25.30;99.90
12872;DHT22;6504;53.766;9.626;2022-08-03T08:00:18;25.40;99.90
12872;DHT22;6504;53.766;9.626;2022-08-03T08:02:46;25.50;99.90
12872;DHT22;6504;53.766;9.626;2022-08-03T08:05:14;25.50;99.90
12872;DHT22;6504;53.766;9.626;2022-08-03T08:07:43;25.60;99.90
12872;DHT22;6504;53.766;9.626;2022-08-03T08:10:19;25.70;99.90
12872;DHT22;6504;53.766;9.626;2022-08-03T08:12:48;25.80;99.90
12872;DHT22;6504;53.766;9.626;2022-08-03T08:15:19;25.80;99.90
12872;DHT22;6504;53.766;9.626;2022-08-03T08:17:50;25.90;99.90
12872;DHT22;6504;53.766;9.626;2022-08-03T08:20:24;26.00;99.90
12872;DHT22;6504;53.766;9.626;2022-08-03T08:22:58;26.10;99.90
12872;DHT22;6504;53.766;9.626;2022-08-03T08:25:51;26.10;99.90
12872;DHT22;6504;53.766;9.626;2022-08-03T08:28:20;26.20;99.90
12872;DHT22;6504;53.766;9.626;2022-08-03T08:30:58;26.30;99.90
12872;DHT22;6504;53.766;9.626;2022-08-03T08:33:27;26.40;99.90
12872;DHT22;6504;53.766;9.626;2022-08-03T08:36:18;26.60;99.90
12872;DHT22;6504;53.766;9.626;2022-08-03T08:38:46;26.70;99.90
12872;DHT22;6504;53.766;9.626;2022-08-03T08:41:19;26.80;99.90
12872;DHT22;6504;53.766;9.626;2022-08-03T08:43:47;26.90;99.90
12872;DHT22;6504;53.766;9.626;2022-08-03T08:46:15;27.00;99.90
12872;DHT22;6504;53.766;9.626;2022-08-03T08:48:50;27.10;99.90
12872;DHT22;6504;53.766;9.626;2022-08-03T08:51:20;27.20;99.90
12872;DHT22;6504;53.766;9.626;2022-08-03T08:53:55;27.30;99.90
12872;DHT22;6504;53.766;9.626;2022-08-03T08:56:27;27.40;99.90
12872;DHT22;6504;53.766;9.626;2022-08-03T08:58:59;27.40;99.90
12872;DHT22;6504;53.766;9.626;2022-08-03T09:01:29;27.50;99.90
12872;DHT22;6504;53.766;9.626;2022-08-03T09:03:57;27.50;99.90
12872;DHT22;6504;53.766;9.626;2022-08-03T09:06:25;27.70;99.90
12872;DHT22;6504;53.766;9.626;2022-08-03T09:08:56;27.80;99.90
12872;DHT22;6504;53.766;9.626;2022-08-03T09:11:25;27.80;99.90
12872;DHT22;6504;53.766;9.626;2022-08-03T09:14:14;27.80;99.90
12872;DHT22;6504;53.766;9.626;2022-08-03T09:17:04;27.80;99.90
12872;DHT22;6504;53.766;9.626;2022-08-03T09:19:36;27.90;99.90
12872;DHT22;6504;53.766;9.626;2022-08-03T09:22:25;27.90;99.90
12872;DHT22;6504;53.766;9.626;2022-08-03T09:24:57;27.90;99.90
12872;DHT22;6504;53.766;9.626;2022-08-03T09:27:47;27.90;99.90
12872;DHT22;6504;53.766;9.626;2022-08-03T09:30:19;27.80;99.90
12872;DHT22;6504;53.766;9.626;2022-08-03T09:33:05;27.90;99.90
12872;DHT22;6504;53.766;9.626;2022-08-03T09:35:40;27.90;99.90
12872;DHT22;6504;53.766;9.626;2022-08-03T09:38:22;28.00;99.90
12872;DHT22;6504;53.766;9.626;2022-08-03T09:40:52;28.00;99.90
12872;DHT22;6504;53.766;9.626;2022-08-03T09:43:27;28.00;99.90
12872;DHT22;6504;53.766;9.626;2022-08-03T09:46:12;28.00;99.90
12872;DHT22;6504;53.766;9.626;2022-08-03T09:48:40;28.10;99.90
12872;DHT22;6504;53.766;9.626;2022-08-03T09:51:10;28.10;99.90
12872;DHT22;6504;53.766;9.626;2022-08-03T09:53:59;28.10;99.90
12872;DHT22;6504;53.766;9.626;2022-08-03T09:56:42;28.10;99.90
12872;DHT22;6504;53.766;9.626;2022-08-03T09:59:23;28.10;99.90
12872;DHT22;6504;53.766;9.626;2022-08-03T10:01:54;28.10;99.90
12872;DHT22;6504;53.766;9.626;2022-08-03T10:04:23;28.10;99.90
12872;DHT22;6504;53.766;9.626;2022-08-03T10:07:03;28.10;99.90
12872;DHT22;6504;53.766;9.626;2022-08-03T10:09:31;28.20;99.90
12872;DHT22;6504;53.766;9.626;2022-08-03T10:12:09;28.20;99.90
12872;DHT22;6504;53.766;9.626;2022-08-03T10:14:42;28.20;99.90
12872;DHT22;6504;53.766;9.626;2022-08-03T10:17:11;28.30;99.90
12872;DHT22;6504;53.766;9.626;2022-08-03T10:19:39;28.30;99.90
12872;DHT22;6504;53.766;9.626;2022-08-03T10:22:12;28.40;99.90
12872;DHT22;6504;53.766;9.626;2022-08-03T10:24:48;28.40;99.90
12872;DHT22;6504;53.766;9.626;2022-08-03T10:27:25;28.40;99.90
12872;DHT22;6504;53.766;9.626;2022-08-03T10:29:58;28.30;99.90
12872;DHT22;6504;53.766;9.626;2022-08-03T10:32:34;28.30;99.90
12872;DHT22;6504;53.766;9.626;2022-08-03T10:35:06;28.40;99.90
12872;DHT22;6504;53.766;9.626;2022-08-03T10:37:51;28.40;99.90
12872;DHT22;6504;53.766;9.626;2022-08-03T10:40:26;28.40;99.90
12872;DHT22;6504;53.766;9.626;2022-08-03T10:43:18;28.50;99.90
12872;DHT22;6504;53.766;9.626;2022-08-03T10:45:51;28.60;99.90
12872;DHT22;6504;53.766;9.626;2022-08-03T10:48:19;28.70;99.90
12872;DHT22;6504;53.766;9.626;2022-08-03T10:50:48;28.90;99.90
12872;DHT22;6504;53.766;9.626;2022-08-03T10:53:33;29.00;99.90
12872;DHT22;6504;53.766;9.626;2022-08-03T10:56:01;29.10;99.90
12872;DHT22;6504;53.766;9.626;2022-08-03T10:59:12;29.20;99.90
12872;DHT22;6504;53.766;9.626;2022-08-03T11:01:56;29.30;99.90
12872;DHT22;6504;53.766;9.626;2022-08-03T11:04:27;29.40;99.90
12872;DHT22;6504;53.766;9.626;2022-08-03T11:07:18;29.40;99.90
12872;DHT22;6504;53.766;9.626;2022-08-03T11:09:50;29.50;99.90
12872;DHT22;6504;53.766;9.626;2022-08-03T11:12:23;29.60;99.90
12872;DHT22;6504;53.766;9.626;2022-08-03T11:15:01;29.70;99.90
12872;DHT22;6504;53.766;9.626;2022-08-03T11:17:35;29.80;99.90
12872;DHT22;6504;53.766;9.626;2022-08-03T11:20:43;29.80;99.90
12872;DHT22;6504;53.766;9.626;2022-08-03T11:23:11;29.90;99.90
12872;DHT22;6504;53.766;9.626;2022-08-03T11:26:11;29.90;99.90
12872;DHT22;6504;53.766;9.626;2022-08-03T11:28:40;30.00;99.90
12872;DHT22;6504;53.766;9.626;2022-08-03T11:31:43;30.10;99.90
12872;DHT22;6504;53.766;9.626;2022-08-03T11:34:17;30.20;99.90
12872;DHT22;6504;53.766;9.626;2022-08-03T11:37:21;30.30;99.90
12872;DHT22;6504;53.766;9.626;2022-08-03T11:39:53;30.30;99.90
12872;DHT22;6504;53.766;9.626;2022-08-03T11:42:41;30.30;99.90
12872;DHT22;6504;53.766;9.626;2022-08-03T11:45:14;30.50;99.90
12872;DHT22;6504;53.766;9.626;2022-08-03T11:47:42;30.50;99.90
12872;DHT22;6504;53.766;9.626;2022-08-03T11:50:18;30.60;99.90
12872;DHT22;6504;53.766;9.626;2022-08-03T11:52:48;30.60;99.90
12872;DHT22;6504;53.766;9.626;2022-08-03T11:55:18;30.70;99.90
12872;DHT22;6504;53.766;9.626;2022-08-03T11:57:48;30.70;99.90
12872;DHT22;6504;53.766;9.626;2022-08-03T12:00:36;30.80;99.90
12872;DHT22;6504;53.766;9.626;2022-08-03T12:03:09;30.90;99.90
12872;DHT22;6504;53.766;9.626;2022-08-03T12:05:46;31.00;99.90
12872;DHT22;6504;53.766;9.626;2022-08-03T12:08:28;31.10;99.90
12872;DHT22;6504;53.766;9.626;2022-08-03T12:11:02;31.10;99.90
12872;DHT22;6504;53.766;9.626;2022-08-03T12:13:39;31.10;99.90
12872;DHT22;6504;53.766;9.626;2022-08-03T12:16:28;31.20;99.90
12872;DHT22;6504;53.766;9.626;2022-08-03T12:18:57;31.20;99.90
12872;DHT22;6504;53.766;9.626;2022-08-03T12:21:28;31.30;99.90
12872;DHT22;6504;53.766;9.626;2022-08-03T12:23:57;31.40;99.90
12872;DHT22;6504;53.766;9.626;2022-08-03T12:26:27;31.40;99.90
12872;DHT22;6504;53.766;9.626;2022-08-03T12:28:57;31.50;99.90
12872;DHT22;6504;53.766;9.626;2022-08-03T12:31:26;31.60;99.90
12872;DHT22;6504;53.766;9.626;2022-08-03T12:34:01;31.60;99.90
12872;DHT22;6504;53.766;9.626;2022-08-03T12:36:34;31.70;99.90
12872;DHT22;6504;53.766;9.626;2022-08-03T12:39:04;31.70;99.90
12872;DHT22;6504;53.766;9.626;2022-08-03T12:41:34;31.80;99.90
12872;DHT22;6504;53.766;9.626;2022-08-03T12:44:07;31.90;99.90
12872;DHT22;6504;53.766;9.626;2022-08-03T12:46:37;31.90;99.90
12872;DHT22;6504;53.766;9.626;2022-08-03T12:49:14;32.00;99.90
12872;DHT22;6504;53.766;9.626;2022-08-03T12:51:58;32.00;99.90
12872;DHT22;6504;53.766;9.626;2022-08-03T12:54:36;32.10;99.90
12872;DHT22;6504;53.766;9.626;2022-08-03T12:57:06;32.20;99.90
12872;DHT22;6504;53.766;9.626;2022-08-03T12:59:40;32.30;99.90
12872;DHT22;6504;53.766;9.626;2022-08-03T13:02:21;32.40;99.90
12872;DHT22;6504;53.766;9.626;2022-08-03T13:04:51;32.50;99.90
12872;DHT22;6504;53.766;9.626;2022-08-03T13:07:23;32.50;99.90
12872;DHT22;6504;53.766;9.626;2022-08-03T13:09:54;32.70;99.90
12872;DHT22;6504;53.766;9.626;2022-08-03T13:12:23;32.80;99.90
12872;DHT22;6504;53.766;9.626;2022-08-03T13:14:54;32.90;99.90
12872;DHT22;6504;53.766;9.626;2022-08-03T13:17:23;32.90;99.90
12872;DHT22;6504;53.766;9.626;2022-08-03T13:19:51;33.00;99.90
12872;DHT22;6504;53.766;9.626;2022-08-03T13:22:23;33.00;99.90
12872;DHT22;6504;53.766;9.626;2022-08-03T13:24:55;33.00;99.90
12872;DHT22;6504;53.766;9.626;2022-08-03T13:27:24;33.00;99.90
12872;DHT22;6504;53.766;9.626;2022-08-03T13:30:13;33.00;99.90
12872;DHT22;6504;53.766;9.626;2022-08-03T13:32:55;33.00;99.90
12872;DHT22;6504;53.766;9.626;2022-08-03T13:35:29;33.10;99.90
12872;DHT22;6504;53.766;9.626;2022-08-03T13:37:58;33.20;99.90
12872;DHT22;6504;53.766;9.626;2022-08-03T13:40:26;33.20;99.90
12872;DHT22;6504;53.766;9.626;2022-08-03T13:43:07;33.20;99.90
12872;DHT22;6504;53.766;9.626;2022-08-03T13:45:35;33.20;99.90
12872;DHT22;6504;53.766;9.626;2022-08-03T13:48:04;33.30;99.90
12872;DHT22;6504;53.766;9.626;2022-08-03T13:50:32;33.30;99.90
12872;DHT22;6504;53.766;9.626;2022-08-03T13:53:06;33.30;99.90
12872;DHT22;6504;53.766;9.626;2022-08-03T13:55:35;33.40;99.90
12872;DHT22;6504;53.766;9.626;2022-08-03T13:58:03;33.40;99.90
12872;DHT22;6504;53.766;9.626;2022-08-03T14:00:33;33.40;99.90
12872;DHT22;6504;53.766;9.626;2022-08-03T14:03:04;33.50;99.90
12872;DHT22;6504;53.766;9.626;2022-08-03T14:05:40;33.50;99.90
12872;DHT22;6504;53.766;9.626;2022-08-03T14:08:15;33.50;99.90
12872;DHT22;6504;53.766;9.626;2022-08-03T14:10:44;33.50;99.90
12872;DHT22;6504;53.766;9.626;2022-08-03T14:13:14;33.50;99.90
12872;DHT22;6504;53.766;9.626;2022-08-03T14:15:44;33.60;99.90
12872;DHT22;6504;53.766;9.626;2022-08-03T14:18:18;33.60;99.90
12872;DHT22;6504;53.766;9.626;2022-08-03T14:21:02;33.70;99.90
12872;DHT22;6504;53.766;9.626;2022-08-03T14:23:37;33.70;99.90
12872;DHT22;6504;53.766;9.626;2022-08-03T14:26:08;33.70;99.90
12872;DHT22;6504;53.766;9.626;2022-08-03T14:28:37;33.70;99.90
12872;DHT22;6504;53.766;9.626;2022-08-03T14:31:06;33.70;99.90
12872;DHT22;6504;53.766;9.626;2022-08-03T14:33:55;33.70;99.90
12872;DHT22;6504;53.766;9.626;2022-08-03T14:36:23;33.70;99.90
12872;DHT22;6504;53.766;9.626;2022-08-03T14:38:52;33.60;99.90
12872;DHT22;6504;53.766;9.626;2022-08-03T14:41:29;33.60;99.90
12872;DHT22;6504;53.766;9.626;2022-08-03T14:43:58;33.70;99.90
12872;DHT22;6504;53.766;9.626;2022-08-03T14:46:29;33.70;99.90
12872;DHT22;6504;53.766;9.626;2022-08-03T14:48:59;33.70;99.90
12872;DHT22;6504;53.766;9.626;2022-08-03T14:51:47;33.80;99.90
12872;DHT22;6504;53.766;9.626;2022-08-03T14:54:21;33.80;99.90
12872;DHT22;6504;53.766;9.626;2022-08-03T14:56:49;33.80;99.90
12872;DHT22;6504;53.766;9.626;2022-08-03T14:59:20;33.80;99.90
12872;DHT22;6504;53.766;9.626;2022-08-03T15:01:49;33.70;99.90
12872;DHT22;6504;53.766;9.626;2022-08-03T15:04:34;33.70;99.90
12872;DHT22;6504;53.766;9.626;2022-08-03T15:07:05;33.70;99.90
12872;DHT22;6504;53.766;9.626;2022-08-03T15:09:35;33.70;99.90
12872;DHT22;6504;53.766;9.626;2022-08-03T15:12:10;33.70;99.90
12872;DHT22;6504;53.766;9.626;2022-08-03T15:14:38;33.50;99.90
12872;DHT22;6504;53.766;9.626;2022-08-03T15:17:09;33.30;99.90
12872;DHT22;6504;53.766;9.626;2022-08-03T15:19:38;33.20;99.90
12872;DHT22;6504;53.766;9.626;2022-08-03T15:22:26;33.10;99.90
12872;DHT22;6504;53.766;9.626;2022-08-03T15:25:02;33.10;99.90
12872;DHT22;6504;53.766;9.626;2022-08-03T15:27:52;33.10;99.90
12872;DHT22;6504;53.766;9.626;2022-08-03T15:30:30;33.10;99.90
12872;DHT22;6504;53.766;9.626;2022-08-03T15:33:01;33.10;99.90
12872;DHT22;6504;53.766;9.626;2022-08-03T15:35:32;33.10;99.90
12872;DHT22;6504;53.766;9.626;2022-08-03T15:38:02;33.10;99.90
12872;DHT22;6504;53.766;9.626;2022-08-03T15:40:40;33.10;99.90
12872;DHT22;6504;53.766;9.626;2022-08-03T15:43:09;33.00;99.90
12872;DHT22;6504;53.766;9.626;2022-08-03T15:45:37;32.90;99.90
12872;DHT22;6504;53.766;9.626;2022-08-03T15:48:08;32.90;99.90
12872;DHT22;6504;53.766;9.626;2022-08-03T15:50:36;32.80;99.90
12872;DHT22;6504;53.766;9.626;2022-08-03T15:53:07;32.80;99.90
12872;DHT22;6504;53.766;9.626;2022-08-03T15:55:36;32.70;99.90
12872;DHT22;6504;53.766;9.626;2022-08-03T15:58:08;32.60;99.90
12872;DHT22;6504;53.766;9.626;2022-08-03T16:00:56;32.50;99.90
12872;DHT22;6504;53.766;9.626;2022-08-03T16:03:25;32.50;99.90
12872;DHT22;6504;53.766;9.626;2022-08-03T16:05:54;32.40;99.90
12872;DHT22;6504;53.766;9.626;2022-08-03T16:08:22;32.40;99.90
12872;DHT22;6504;53.766;9.626;2022-08-03T16:10:50;32.40;99.90
12872;DHT22;6504;53.766;9.626;2022-08-03T16:13:20;32.40;99.90
12872;DHT22;6504;53.766;9.626;2022-08-03T16:16:08;32.40;99.90
12872;DHT22;6504;53.766;9.626;2022-08-03T16:18:36;32.40;99.90
12872;DHT22;6504;53.766;9.626;2022-08-03T16:21:04;32.30;99.90
12872;DHT22;6504;53.766;9.626;2022-08-03T16:23:36;32.20;99.90
12872;DHT22;6504;53.766;9.626;2022-08-03T16:26:09;32.20;99.90
12872;DHT22;6504;53.766;9.626;2022-08-03T16:28:38;32.10;99.90